Davisburg, Kentucky
Current Conditions -  °F | °C
As of 8:15 AM on Thursday 27 Nov 2014 (Local Time) from KI35 Reporting Station
Overcast Overcast  
Wind Chill: 29°   Ceiling: 1400
Heat Index: 34°   Visibility: 7mi
Dew Point: 32°   Wind: 6mph
Humidity: 93%   Direction: 310°NW
Pressure: 30.14"   Gusts: 16mph
Location:  36.7417°N, 83.6911°W
Report Text: KI35 271315Z AUTO 31005G14KT 7SM BKN014 OVC022 01/00 A3014 RMK AO1
Loading
Personal Weather Stations






























Interactive Weather Map New forecast layout! Learn more

10-Day Weather Forecast

Advertisements
Track Severe Weather on mobile